Time;durP1;ratioP1;P1;durP2;ratioP2;P2;SDS_P1;SDS_P2;PMS_P1;PMS_P2;Temp;Humidity;BMP_temperature;BMP_pressure;BME280_temperature;BME280_humidity;BME280_pressure;Samples;Min_cycle;Max_cycle;Signal;HPM_P1;HPM_P2
2024/02/03 00:00:41;;;;;;;17.80;12.87;;;8.10;99.90;;;;;;4853734;29;20197;-73
2024/02/03 00:03:06;;;;;;;15.70;11.40;;;8.10;99.90;;;;;;4854468;29;20319;-75
2024/02/03 00:05:32;;;;;;;14.43;11.37;;;8.10;99.90;;;;;;4856880;29;20232;-72
2024/02/03 00:07:57;;;;;;;17.43;13.00;;;8.20;99.90;;;;;;4855801;29;20224;-74
2024/02/03 00:10:23;;;;;;;14.47;11.23;;;8.10;99.90;;;;;;4856864;29;20209;-73
2024/02/03 00:12:49;;;;;;;15.93;10.70;;;8.10;99.90;;;;;;4853661;29;20193;-74
2024/02/03 00:15:16;;;;;;;15.30;12.03;;;8.10;99.90;;;;;;4853238;29;20181;-76
2024/02/03 00:17:41;;;;;;;14.37;11.03;;;8.10;99.90;;;;;;4853901;29;20208;-72
2024/02/03 00:20:08;;;;;;;13.00;11.03;;;8.10;99.90;;;;;;4854278;29;20430;-75
2024/02/03 00:22:34;;;;;;;13.93;11.37;;;8.10;99.90;;;;;;4853874;29;20189;-74
2024/02/03 00:25:00;;;;;;;14.63;10.97;;;8.10;99.90;;;;;;4867909;29;20762;-74
2024/02/03 00:27:26;;;;;;;15.90;11.93;;;8.10;99.90;;;;;;4852304;29;20243;-72
2024/02/03 00:29:51;;;;;;;19.03;12.90;;;8.10;99.90;;;;;;4852297;29;20466;-73
2024/02/03 00:32:17;;;;;;;16.80;12.87;;;8.10;99.90;;;;;;4853999;29;20260;-75
2024/02/03 00:34:44;;;;;;;16.87;11.97;;;8.10;99.90;;;;;;4870851;29;20197;-74
2024/02/03 00:37:10;;;;;;;18.13;13.07;;;8.20;99.90;;;;;;4852871;29;20213;-73
2024/02/03 00:39:40;;;;;;;19.43;12.80;;;8.10;99.90;;;;;;4851301;29;20438;-72
2024/02/03 00:42:06;;;;;;;14.53;12.63;;;8.20;99.90;;;;;;4854601;29;20493;-72
2024/02/03 00:44:32;;;;;;;15.70;13.93;;;8.20;99.90;;;;;;4853049;29;20474;-75
2024/02/03 00:46:57;;;;;;;16.10;11.93;;;8.20;99.90;;;;;;4867601;29;20450;-73
2024/02/03 00:49:23;;;;;;;14.30;10.90;;;8.20;99.90;;;;;;4855667;29;20224;-74
2024/02/03 00:51:48;;;;;;;15.73;10.77;;;8.10;99.90;;;;;;4855513;29;20498;-73
2024/02/03 00:54:14;;;;;;;12.90;9.90;;;8.10;99.90;;;;;;4854383;29;20205;-71
2024/02/03 00:56:40;;;;;;;12.80;9.50;;;8.10;99.90;;;;;;4853474;29;20205;-73
2024/02/03 00:59:05;;;;;;;17.67;11.03;;;8.20;99.90;;;;;;4852700;29;20217;-72
2024/02/03 01:01:31;;;;;;;12.97;10.17;;;8.10;99.90;;;;;;4852251;29;20232;-72
2024/02/03 01:03:57;;;;;;;15.00;11.50;;;8.10;99.90;;;;;;4858872;29;20235;-73
2024/02/03 01:06:23;;;;;;;15.97;12.13;;;8.10;99.90;;;;;;4852872;29;20454;-73
2024/02/03 01:08:48;;;;;;;13.17;11.37;;;8.10;99.90;;;;;;4852456;29;20375;-71
2024/02/03 01:11:15;;;;;;;16.17;12.47;;;8.20;99.90;;;;;;4854732;29;20193;-73
2024/02/03 01:13:41;;;;;;;13.10;10.67;;;8.20;99.90;;;;;;4871027;29;20264;-74
2024/02/03 01:16:07;;;;;;;12.87;10.10;;;8.20;99.90;;;;;;4852291;29;20474;-71
2024/02/03 01:18:32;;;;;;;16.03;11.40;;;8.20;99.90;;;;;;4857363;29;20200;-72
2024/02/03 01:20:58;;;;;;;14.77;11.00;;;8.20;99.90;;;;;;4858285;29;20201;-72
2024/02/03 01:23:23;;;;;;;13.13;10.73;;;8.20;99.90;;;;;;4851189;29;20193;-72
2024/02/03 01:25:49;;;;;;;12.13;9.20;;;8.20;99.90;;;;;;4851461;29;20220;-71
2024/02/03 01:28:15;;;;;;;13.57;10.23;;;8.30;99.90;;;;;;4850919;29;20193;-71
2024/02/03 01:30:41;;;;;;;12.90;10.13;;;8.30;99.90;;;;;;4850873;29;20835;-71
2024/02/03 01:33:07;;;;;;;15.80;11.10;;;8.30;99.90;;;;;;4854807;29;20681;-73
2024/02/03 01:35:32;;;;;;;12.63;10.33;;;8.30;99.90;;;;;;4852310;29;20553;-72
2024/02/03 01:37:58;;;;;;;11.17;9.70;;;8.30;99.90;;;;;;4852299;29;20177;-72
2024/02/03 01:40:26;;;;;;;12.13;10.40;;;8.20;99.90;;;;;;4850944;29;20610;-71
2024/02/03 01:43:00;;;;;;;12.70;10.90;;;8.20;99.90;;;;;;4852106;29;20173;-72
2024/02/03 01:45:27;;;;;;;12.93;10.50;;;8.30;99.90;;;;;;4849145;29;20477;-73
2024/02/03 01:47:53;;;;;;;13.00;11.40;;;8.20;99.90;;;;;;4854429;29;20461;-70
2024/02/03 01:50:22;;;;;;;13.83;10.63;;;8.30;99.90;;;;;;4855118;29;20484;-76
2024/02/03 01:52:50;;;;;;;13.00;11.10;;;8.20;99.90;;;;;;4851517;29;20430;-72
2024/02/03 01:55:16;;;;;;;13.50;10.83;;;8.20;99.90;;;;;;4851048;29;20419;-72
2024/02/03 01:57:44;;;;;;;10.80;8.93;;;8.20;99.90;;;;;;4851759;29;20504;-74
2024/02/03 02:00:11;;;;;;;10.87;9.40;;;8.20;99.90;;;;;;4848804;29;20417;-72
2024/02/03 02:02:36;;;;;;;11.27;8.90;;;8.20;99.90;;;;;;4847766;29;20465;-73
2024/02/03 02:05:03;;;;;;;12.90;11.10;;;8.20;99.90;;;;;;4848970;29;20434;-71
2024/02/03 02:07:28;;;;;;;10.93;9.20;;;8.20;99.90;;;;;;4847961;29;20661;-74
2024/02/03 02:09:56;;;;;;;13.13;9.27;;;8.20;99.90;;;;;;4848998;29;20461;-72
2024/02/03 02:12:22;;;;;;;12.70;8.60;;;8.20;99.90;;;;;;4847840;29;20204;-71
2024/02/03 02:14:48;;;;;;;12.23;9.80;;;8.20;99.90;;;;;;4847691;29;20430;-73
2024/02/03 02:17:14;;;;;;;11.10;8.90;;;8.20;99.90;;;;;;4847814;29;20266;-71
2024/02/03 02:19:39;;;;;;;12.07;7.90;;;8.20;99.90;;;;;;4850087;29;20445;-72
2024/02/03 02:22:05;;;;;;;10.27;7.57;;;8.20;99.90;;;;;;4848266;29;20438;-72
2024/02/03 02:24:31;;;;;;;10.63;7.40;;;8.20;99.90;;;;;;4851219;29;20487;-72
2024/02/03 02:26:57;;;;;;;9.53;7.67;;;8.20;99.90;;;;;;4846436;29;20225;-73
2024/02/03 02:29:22;;;;;;;10.37;6.63;;;8.20;99.90;;;;;;4847771;29;20567;-72
2024/02/03 02:31:48;;;;;;;9.50;7.40;;;8.30;99.90;;;;;;4848318;29;20252;-73
2024/02/03 02:34:14;;;;;;;7.70;6.47;;;8.30;99.90;;;;;;4850375;29;20251;-72
2024/02/03 02:36:39;;;;;;;10.97;7.87;;;8.30;99.90;;;;;;4847417;29;20633;-70
2024/02/03 02:39:05;;;;;;;9.83;8.20;;;8.30;99.90;;;;;;4847108;29;20209;-72
2024/02/03 02:41:31;;;;;;;8.27;6.83;;;8.30;99.90;;;;;;4845868;29;20249;-71
2024/02/03 02:43:56;;;;;;;10.87;7.17;;;8.30;99.90;;;;;;4848613;29;20566;-75
2024/02/03 02:46:26;;;;;;;9.40;7.63;;;8.30;99.90;;;;;;4850015;29;20478;-72
2024/02/03 02:48:53;;;;;;;8.20;6.53;;;8.30;99.90;;;;;;4851754;29;20208;-72
2024/02/03 02:51:18;;;;;;;9.53;7.17;;;8.30;99.90;;;;;;4851059;29;20426;-72
2024/02/03 02:53:44;;;;;;;9.70;7.23;;;8.30;99.90;;;;;;4851749;29;20456;-72
2024/02/03 02:56:10;;;;;;;9.27;7.50;;;8.30;99.90;;;;;;4853412;29;20213;-72
2024/02/03 02:58:35;;;;;;;8.20;7.23;;;8.40;99.90;;;;;;4853732;29;20206;-71
2024/02/03 03:01:01;;;;;;;9.37;7.07;;;8.30;99.90;;;;;;4852537;29;20595;-71
2024/02/03 03:03:27;;;;;;;9.70;7.33;;;8.30;99.90;;;;;;4851604;29;20201;-71
2024/02/03 03:05:54;;;;;;;8.80;7.43;;;8.30;99.90;;;;;;4850116;29;20220;-71
2024/02/03 03:08:20;;;;;;;10.27;8.10;;;8.30;99.90;;;;;;4849877;29;20437;-71
2024/02/03 03:10:45;;;;;;;9.53;7.67;;;8.30;99.90;;;;;;4849749;29;20458;-69
2024/02/03 03:13:11;;;;;;;8.13;6.70;;;8.30;99.90;;;;;;4849620;29;20272;-70
2024/02/03 03:15:36;;;;;;;10.17;6.53;;;8.30;99.90;;;;;;4849270;29;20209;-72
2024/02/03 03:18:02;;;;;;;8.53;6.63;;;8.30;99.90;;;;;;4852026;29;20243;-71
2024/02/03 03:20:27;;;;;;;9.20;7.33;;;8.30;99.90;;;;;;4854361;29;20659;-71
2024/02/03 03:22:53;;;;;;;10.73;6.50;;;8.30;99.90;;;;;;4849579;29;20192;-71
2024/02/03 03:25:19;;;;;;;11.40;8.03;;;8.30;99.90;;;;;;4849060;29;20225;-70
2024/02/03 03:27:44;;;;;;;10.50;8.50;;;8.30;99.90;;;;;;4854372;29;20670;-71
2024/02/03 03:30:10;;;;;;;7.20;6.30;;;8.30;99.90;;;;;;4856134;29;20241;-71
2024/02/03 03:32:36;;;;;;;9.20;7.10;;;8.30;99.90;;;;;;4853776;29;20192;-72
2024/02/03 03:35:01;;;;;;;8.27;6.00;;;8.30;99.90;;;;;;4857243;29;20197;-69
2024/02/03 03:37:27;;;;;;;7.10;6.40;;;8.30;99.90;;;;;;4855149;29;20189;-69
2024/02/03 03:39:53;;;;;;;8.90;7.20;;;8.30;99.90;;;;;;4853828;29;20749;-71
2024/02/03 03:42:20;;;;;;;10.23;7.57;;;8.30;99.90;;;;;;4851297;29;20192;-72
2024/02/03 03:44:45;;;;;;;10.03;8.17;;;8.40;99.90;;;;;;4848339;29;20559;-71
2024/02/03 03:47:12;;;;;;;9.00;6.87;;;8.40;99.90;;;;;;4849120;29;20955;-72
2024/02/03 03:49:38;;;;;;;9.90;6.40;;;8.40;99.90;;;;;;4853198;29;20232;-71
2024/02/03 03:52:04;;;;;;;8.80;7.10;;;8.40;99.90;;;;;;4849087;29;20446;-70
2024/02/03 03:54:29;;;;;;;9.43;6.50;;;8.40;99.90;;;;;;4848658;29;20219;-70
2024/02/03 03:56:55;;;;;;;10.97;6.80;;;8.40;99.90;;;;;;4847735;29;20450;-71
2024/02/03 03:59:20;;;;;;;9.50;6.70;;;8.40;99.90;;;;;;4848372;29;20231;-70
2024/02/03 04:01:47;;;;;;;10.27;7.50;;;8.40;99.90;;;;;;4847322;29;20208;-71
2024/02/03 04:04:13;;;;;;;9.90;7.60;;;8.40;99.90;;;;;;4851773;29;20223;-71
2024/02/03 04:06:38;;;;;;;12.00;8.17;;;8.40;99.90;;;;;;4850197;29;20442;-71
2024/02/03 04:09:05;;;;;;;7.20;6.27;;;8.50;99.90;;;;;;4849114;29;20311;-70
2024/02/03 04:11:31;;;;;;;7.50;6.17;;;8.50;99.90;;;;;;4847522;29;20276;-71
2024/02/03 04:13:57;;;;;;;8.00;6.60;;;8.50;99.90;;;;;;4847930;29;20426;-71
2024/02/03 04:16:22;;;;;;;8.63;6.53;;;8.50;99.90;;;;;;4847571;29;20212;-71
2024/02/03 04:18:48;;;;;;;9.10;6.50;;;8.50;99.90;;;;;;4850013;29;20197;-71
2024/02/03 04:21:13;;;;;;;7.50;5.60;;;8.50;99.90;;;;;;4851532;29;20205;-71
2024/02/03 04:23:39;;;;;;;9.90;7.00;;;8.50;99.90;;;;;;4846680;29;20530;-71
2024/02/03 04:26:05;;;;;;;8.80;6.70;;;8.50;99.90;;;;;;4847304;29;20301;-71
2024/02/03 04:28:30;;;;;;;8.67;6.57;;;8.50;99.90;;;;;;4845732;29;20205;-71
2024/02/03 04:30:58;;;;;;;8.93;7.20;;;8.60;99.90;;;;;;4846748;29;20257;-71
2024/02/03 04:33:23;;;;;;;8.07;6.10;;;8.60;99.90;;;;;;4850468;29;20253;-71
2024/02/03 04:35:49;;;;;;;9.27;7.10;;;8.60;99.90;;;;;;4846531;29;20442;-71
2024/02/03 04:38:15;;;;;;;7.00;6.00;;;8.60;99.90;;;;;;4847088;29;20197;-70
2024/02/03 04:40:40;;;;;;;9.07;6.37;;;8.60;99.90;;;;;;4846645;29;20204;-71
2024/02/03 04:43:06;;;;;;;7.80;5.97;;;8.60;99.90;;;;;;4846531;29;20204;-72
2024/02/03 04:45:32;;;;;;;7.33;5.90;;;8.60;99.90;;;;;;4846520;29;20260;-71
2024/02/03 04:47:57;;;;;;;8.03;6.90;;;8.70;99.90;;;;;;4848290;29;20251;-71
2024/02/03 04:50:23;;;;;;;5.67;4.43;;;8.70;99.90;;;;;;4846824;29;20227;-71
2024/02/03 04:52:48;;;;;;;6.87;5.83;;;8.70;99.90;;;;;;4849498;29;20599;-71
2024/02/03 04:55:14;;;;;;;6.03;4.70;;;8.70;99.90;;;;;;4846848;29;20467;-71
2024/02/03 04:57:40;;;;;;;5.43;4.30;;;8.70;99.90;;;;;;4848234;29;20189;-71
2024/02/03 05:00:08;;;;;;;7.00;5.13;;;8.70;99.90;;;;;;4846066;29;20426;-70
2024/02/03 05:02:33;;;;;;;7.30;5.67;;;8.70;99.90;;;;;;4846029;29;20482;-71
2024/02/03 05:04:59;;;;;;;5.50;4.50;;;8.80;99.90;;;;;;4849188;29;20430;-70
2024/02/03 05:07:25;;;;;;;6.70;4.70;;;8.70;99.90;;;;;;4849373;29;20560;-71
2024/02/03 05:09:50;;;;;;;7.43;5.47;;;8.70;99.90;;;;;;4848846;29;20212;-71
2024/02/03 05:12:16;;;;;;;5.47;4.23;;;8.70;99.90;;;;;;4846637;29;20212;-70
2024/02/03 05:14:42;;;;;;;5.77;4.47;;;8.80;99.90;;;;;;4847030;29;20576;-71
2024/02/03 05:17:08;;;;;;;5.47;4.30;;;8.80;99.90;;;;;;4848172;29;20209;-71
2024/02/03 05:19:33;;;;;;;5.27;4.43;;;8.80;99.90;;;;;;4849724;29;20242;-71
2024/02/03 05:21:59;;;;;;;4.83;3.90;;;8.80;99.90;;;;;;4848988;29;20442;-70
2024/02/03 05:24:24;;;;;;;5.60;4.23;;;8.80;99.90;;;;;;4845941;29;20646;-70
2024/02/03 05:26:50;;;;;;;5.03;3.90;;;8.80;99.90;;;;;;4846301;29;20215;-71
2024/02/03 05:29:16;;;;;;;5.10;3.90;;;8.90;99.90;;;;;;4845226;29;20261;-70
2024/02/03 05:31:42;;;;;;;4.80;4.03;;;8.80;99.90;;;;;;4845916;29;20224;-71
2024/02/03 05:34:07;;;;;;;5.40;4.80;;;8.90;99.90;;;;;;4848083;29;20473;-71
2024/02/03 05:36:33;;;;;;;4.93;4.40;;;8.90;99.90;;;;;;4846880;29;20208;-71
2024/02/03 05:38:58;;;;;;;9.00;4.70;;;8.90;99.90;;;;;;4845596;29;20204;-71
2024/02/03 05:41:24;;;;;;;4.80;3.63;;;8.90;99.90;;;;;;4848227;29;20282;-70
2024/02/03 05:43:49;;;;;;;4.90;4.07;;;8.90;99.90;;;;;;4848577;29;20217;-71
2024/02/03 05:46:15;;;;;;;4.47;3.77;;;8.90;99.90;;;;;;4850820;29;20237;-71
2024/02/03 05:48:40;;;;;;;7.20;4.10;;;8.90;99.90;;;;;;4851146;29;20196;-71
2024/02/03 05:51:06;;;;;;;5.20;4.50;;;8.90;99.90;;;;;;4853007;29;20234;-71
2024/02/03 05:53:35;;;;;;;5.70;4.67;;;8.90;99.90;;;;;;4845962;29;20188;-72
2024/02/03 05:56:04;;;;;;;7.47;4.43;;;9.00;99.90;;;;;;4844016;29;20649;-72
2024/02/03 05:58:30;;;;;;;5.47;3.93;;;9.00;99.90;;;;;;4845067;29;20733;-70
2024/02/03 06:00:57;;;;;;;5.07;3.67;;;9.00;99.90;;;;;;4847113;29;20429;-71
2024/02/03 06:03:24;;;;;;;6.40;4.40;;;9.00;99.90;;;;;;4850227;29;20196;-71
2024/02/03 06:05:49;;;;;;;6.30;4.90;;;9.00;99.90;;;;;;4845857;29;20983;-70
2024/02/03 06:08:15;;;;;;;5.20;4.00;;;9.00;99.90;;;;;;4846228;29;20430;-70
2024/02/03 06:10:41;;;;;;;4.63;4.10;;;9.10;99.90;;;;;;4847287;29;20316;-70
2024/02/03 06:13:07;;;;;;;5.50;4.40;;;9.00;99.90;;;;;;4844929;29;20219;-70
2024/02/03 06:15:32;;;;;;;6.27;4.97;;;9.00;99.90;;;;;;4844754;29;20224;-72
2024/02/03 06:17:58;;;;;;;6.77;4.37;;;9.00;99.90;;;;;;4847761;29;20422;-71
2024/02/03 06:20:24;;;;;;;7.83;5.27;;;9.00;99.90;;;;;;4852503;29;20357;-71
2024/02/03 06:22:49;;;;;;;6.87;5.50;;;9.10;99.90;;;;;;4848367;29;20244;-72
2024/02/03 06:25:15;;;;;;;7.80;6.17;;;9.10;99.90;;;;;;4849904;29;20510;-73
2024/02/03 06:27:41;;;;;;;7.67;5.97;;;9.10;99.90;;;;;;4848768;29;20288;-70
2024/02/03 06:30:07;;;;;;;6.30;5.23;;;9.10;99.90;;;;;;4850842;29;20217;-73
2024/02/03 06:32:33;;;;;;;9.80;6.43;;;9.10;99.90;;;;;;4852900;29;20517;-71
2024/02/03 06:34:58;;;;;;;8.43;7.03;;;9.10;99.90;;;;;;4856016;29;20430;-72
2024/02/03 06:37:24;;;;;;;8.40;6.70;;;9.10;99.90;;;;;;4849835;29;20221;-71
2024/02/03 06:39:49;;;;;;;7.50;5.70;;;9.10;99.90;;;;;;4850165;29;20189;-71
2024/02/03 06:42:15;;;;;;;8.63;6.10;;;9.10;99.90;;;;;;4849678;29;20542;-72
2024/02/03 06:44:40;;;;;;;8.27;6.60;;;9.10;99.90;;;;;;4848005;29;20232;-71
2024/02/03 06:47:06;;;;;;;6.87;5.37;;;9.10;99.90;;;;;;4849008;29;20221;-73
2024/02/03 06:49:31;;;;;;;6.43;4.77;;;9.10;99.90;;;;;;4852945;29;20229;-71
2024/02/03 06:51:57;;;;;;;7.50;5.90;;;9.10;99.90;;;;;;4853670;29;20200;-71
2024/02/03 06:54:23;;;;;;;7.37;6.30;;;9.20;99.90;;;;;;4854981;29;20193;-70
2024/02/03 06:56:49;;;;;;;5.77;4.63;;;9.20;99.90;;;;;;4850006;29;20217;-72
2024/02/03 06:59:14;;;;;;;6.70;5.93;;;9.20;99.90;;;;;;4850526;29;20435;-70
2024/02/03 07:01:40;;;;;;;7.40;5.43;;;9.20;99.90;;;;;;4851315;29;20242;-72
2024/02/03 07:04:06;;;;;;;9.10;5.10;;;9.20;99.90;;;;;;4850919;29;20221;-72
2024/02/03 07:06:31;;;;;;;7.77;6.07;;;9.30;99.90;;;;;;4851974;29;20221;-75
2024/02/03 07:08:57;;;;;;;6.33;5.67;;;9.30;99.90;;;;;;4852946;29;20205;-70
2024/02/03 07:11:22;;;;;;;5.50;4.60;;;9.30;99.90;;;;;;4852573;29;20260;-72
2024/02/03 07:13:48;;;;;;;7.13;5.40;;;9.30;99.90;;;;;;4854713;29;20200;-75
2024/02/03 07:16:14;;;;;;;7.00;5.57;;;9.30;99.90;;;;;;4854482;29;20213;-73
2024/02/03 07:18:40;;;;;;;8.00;6.50;;;9.30;99.90;;;;;;4851685;29;20209;-71
2024/02/03 07:21:06;;;;;;;9.60;6.80;;;9.30;99.90;;;;;;4852655;29;20785;-72
2024/02/03 07:23:32;;;;;;;9.17;6.87;;;9.30;99.90;;;;;;4865814;29;20197;-71
2024/02/03 07:25:57;;;;;;;6.90;5.87;;;9.30;99.90;;;;;;4849948;29;20729;-72
2024/02/03 07:28:23;;;;;;;7.33;5.97;;;9.30;99.90;;;;;;4850243;29;20265;-70
2024/02/03 07:30:49;;;;;;;8.13;6.50;;;9.30;99.90;;;;;;4849947;29;20201;-71
2024/02/03 07:33:14;;;;;;;8.00;5.07;;;9.30;99.90;;;;;;4854040;29;20185;-71
2024/02/03 07:35:40;;;;;;;6.80;6.10;;;9.30;99.90;;;;;;4865463;29;20224;-72
2024/02/03 07:38:05;;;;;;;8.40;6.30;;;9.30;99.90;;;;;;4850895;29;20195;-71
2024/02/03 07:40:31;;;;;;;10.03;7.17;;;9.30;99.90;;;;;;4850506;29;20288;-73
2024/02/03 07:42:57;;;;;;;7.37;6.20;;;9.40;99.90;;;;;;4850877;29;20196;-73
2024/02/03 07:45:22;;;;;;;6.13;5.30;;;9.40;99.90;;;;;;4851101;29;20249;-72
2024/02/03 07:47:48;;;;;;;7.97;6.00;;;9.40;99.90;;;;;;4852245;29;20228;-74
2024/02/03 07:50:14;;;;;;;7.00;5.07;;;9.50;99.90;;;;;;4853474;29;20244;-73
2024/02/03 07:52:39;;;;;;;7.17;5.40;;;9.50;99.90;;;;;;4856159;29;20422;-72
2024/02/03 07:55:06;;;;;;;7.13;5.57;;;9.50;99.90;;;;;;4853207;29;20623;-71
2024/02/03 07:57:31;;;;;;;7.43;5.73;;;9.50;99.90;;;;;;4851732;29;20202;-72
2024/02/03 07:59:57;;;;;;;8.27;5.57;;;9.60;99.90;;;;;;4851838;29;20432;-73
2024/02/03 08:02:23;;;;;;;7.57;6.03;;;9.60;99.90;;;;;;4850838;29;20498;-72
2024/02/03 08:04:49;;;;;;;6.30;5.63;;;9.70;99.90;;;;;;4852131;29;20185;-71
2024/02/03 08:07:15;;;;;;;6.30;5.40;;;9.70;99.90;;;;;;4849618;29;20960;-71
2024/02/03 08:09:40;;;;;;;5.33;4.50;;;9.80;99.90;;;;;;4850843;29;20630;-74
2024/02/03 08:12:06;;;;;;;6.70;5.50;;;9.80;99.90;;;;;;4851667;29;20197;-74
2024/02/03 08:14:32;;;;;;;7.43;5.80;;;9.80;99.90;;;;;;4851495;29;20248;-71
2024/02/03 08:16:57;;;;;;;7.00;5.53;;;9.90;99.90;;;;;;4850997;29;21091;-71
2024/02/03 08:19:23;;;;;;;6.63;5.13;;;9.90;99.90;;;;;;4851949;29;20227;-76
2024/02/03 08:21:48;;;;;;;7.43;5.80;;;9.90;99.90;;;;;;4854953;29;20280;-73
2024/02/03 08:24:14;;;;;;;4.30;3.90;;;9.90;99.90;;;;;;4851079;29;20563;-72
2024/02/03 08:26:40;;;;;;;7.03;4.43;;;9.90;99.90;;;;;;4851922;29;20479;-73
2024/02/03 08:29:06;;;;;;;6.40;4.77;;;10.00;99.90;;;;;;4849980;29;20659;-72
2024/02/03 08:31:31;;;;;;;4.83;4.23;;;10.10;99.90;;;;;;4847379;29;20561;-71
2024/02/03 08:33:57;;;;;;;5.23;4.47;;;10.10;99.90;;;;;;4851170;29;20217;-72
2024/02/03 08:36:23;;;;;;;7.87;4.53;;;10.20;99.90;;;;;;4852040;29;20216;-73
2024/02/03 08:38:49;;;;;;;4.63;4.10;;;10.20;99.90;;;;;;4850849;29;20195;-74
2024/02/03 08:41:15;;;;;;;4.83;4.23;;;10.30;99.90;;;;;;4849242;29;20430;-72
2024/02/03 08:43:40;;;;;;;4.20;3.63;;;10.30;99.90;;;;;;4850527;29;20197;-74
2024/02/03 08:46:07;;;;;;;3.93;3.50;;;10.30;99.90;;;;;;4850138;29;20214;-72
2024/02/03 08:48:33;;;;;;;6.50;3.57;;;10.30;99.90;;;;;;4852665;29;20495;-72
2024/02/03 08:50:59;;;;;;;4.60;3.90;;;10.30;99.90;;;;;;4850592;29;20479;-71
2024/02/03 08:53:25;;;;;;;4.30;3.60;;;10.30;99.90;;;;;;4853738;29;20181;-78
2024/02/03 08:55:50;;;;;;;6.10;4.20;;;10.40;99.90;;;;;;4851101;29;20212;-74
2024/02/03 08:58:16;;;;;;;6.80;3.50;;;10.40;99.90;;;;;;4853752;29;20196;-74
2024/02/03 09:00:42;;;;;;;10.20;4.10;;;10.40;99.90;;;;;;4856285;29;20208;-76
2024/02/03 09:03:07;;;;;;;3.70;3.20;;;10.50;99.90;;;;;;4857264;29;20594;-71
2024/02/03 09:05:33;;;;;;;3.70;3.40;;;10.60;99.90;;;;;;4852906;29;20222;-73
2024/02/03 09:07:58;;;;;;;5.70;4.30;;;10.60;99.90;;;;;;4855527;29;20196;-74
2024/02/03 09:10:24;;;;;;;6.80;4.10;;;10.60;99.90;;;;;;4857185;29;20209;-73
2024/02/03 09:12:53;;;;;;;5.10;4.07;;;10.60;99.90;;;;;;4855634;29;20185;-75
2024/02/03 09:15:18;;;;;;;5.07;4.40;;;10.70;99.90;;;;;;4855272;29;20191;-72
2024/02/03 09:17:44;;;;;;;5.13;4.63;;;10.70;99.90;;;;;;4856663;29;20432;-76
2024/02/03 09:20:10;;;;;;;6.20;4.87;;;10.70;99.90;;;;;;4858633;29;20210;-75
2024/02/03 09:22:36;;;;;;;6.67;3.90;;;10.70;99.90;;;;;;4844947;29;20355;-76
2024/02/03 09:25:01;;;;;;;10.20;4.73;;;10.80;99.90;;;;;;4852316;29;20863;-72
2024/02/03 09:27:27;;;;;;;3.70;3.37;;;10.80;99.90;;;;;;4851551;29;20204;-75
2024/02/03 09:29:53;;;;;;;7.60;4.30;;;10.90;99.90;;;;;;4870046;29;20263;-75
2024/02/03 09:32:18;;;;;;;7.37;4.90;;;10.90;99.90;;;;;;4856875;29;20189;-73
2024/02/03 09:34:48;;;;;;;5.20;4.70;;;11.00;99.90;;;;;;4857350;29;20276;-74
2024/02/03 09:37:14;;;;;;;5.73;4.80;;;11.10;99.90;;;;;;4853495;29;20233;-74
2024/02/03 09:39:43;;;;;;;5.53;5.00;;;11.10;99.90;;;;;;4851548;29;20439;-75
2024/02/03 09:42:09;;;;;;;5.67;4.03;;;11.10;99.90;;;;;;4852257;29;20725;-74
2024/02/03 09:44:35;;;;;;;4.60;3.90;;;11.20;99.90;;;;;;4853451;29;20481;-74
2024/02/03 09:47:02;;;;;;;12.80;4.70;;;11.20;99.90;;;;;;4850619;29;20457;-74
2024/02/03 09:49:27;;;;;;;5.13;4.63;;;11.30;99.90;;;;;;4855486;29;20673;-73
2024/02/03 09:51:53;;;;;;;6.10;4.27;;;11.30;99.90;;;;;;4851487;29;20430;-74
2024/02/03 09:54:20;;;;;;;4.87;4.10;;;11.20;99.90;;;;;;4857119;29;20187;-76
2024/02/03 09:56:46;;;;;;;5.37;4.43;;;11.20;99.90;;;;;;4856514;29;20215;-75
2024/02/03 09:59:14;;;;;;;5.10;4.23;;;11.20;99.90;;;;;;4839600;29;20461;-73
2024/02/03 10:01:45;;;;;;;4.93;3.80;;;11.20;99.90;;;;;;4855189;29;20420;-74
2024/02/03 10:04:14;;;;;;;4.90;4.40;;;11.10;99.90;;;;;;4854585;29;20506;-74
2024/02/03 10:06:47;;;;;;;5.83;5.23;;;11.10;99.90;;;;;;4855307;29;20525;-76
2024/02/03 10:09:23;;;;;;;5.63;4.93;;;11.10;99.90;;;;;;4855515;29;20503;-74
2024/02/03 10:11:49;;;;;;;5.90;5.00;;;11.00;99.90;;;;;;4853690;29;20439;-74
2024/02/03 10:14:17;;;;;;;5.77;4.67;;;10.90;99.90;;;;;;4854771;29;20769;-76
2024/02/03 10:16:44;;;;;;;6.03;5.10;;;10.90;99.90;;;;;;4857545;29;20246;-74
2024/02/03 10:19:09;;;;;;;5.20;4.70;;;10.70;99.90;;;;;;4856596;29;20499;-73
2024/02/03 10:21:35;;;;;;;5.30;4.50;;;10.60;99.90;;;;;;4860013;29;20484;-75
2024/02/03 10:24:01;;;;;;;6.77;4.93;;;10.60;99.90;;;;;;4855207;29;20186;-74
2024/02/03 10:26:28;;;;;;;5.73;5.00;;;10.50;99.90;;;;;;4872651;29;20213;-73
2024/02/03 10:28:53;;;;;;;5.47;4.70;;;10.50;99.90;;;;;;4858706;29;20651;-75
2024/02/03 10:31:19;;;;;;;6.80;4.47;;;10.60;99.90;;;;;;4856302;29;20446;-75
2024/02/03 10:33:45;;;;;;;5.27;4.77;;;10.60;99.90;;;;;;4859873;29;20205;-74
2024/02/03 10:36:11;;;;;;;4.17;3.70;;;10.60;99.90;;;;;;4858104;29;20693;-73
2024/02/03 10:38:38;;;;;;;6.27;4.57;;;10.80;99.90;;;;;;4856871;29;20427;-73
2024/02/03 10:41:07;;;;;;;5.00;4.30;;;10.90;99.90;;;;;;4873455;29;20206;-76
2024/02/03 10:43:34;;;;;;;5.80;4.60;;;10.90;99.90;;;;;;4874305;29;20433;-75
2024/02/03 10:46:08;;;;;;;6.10;4.90;;;10.90;99.90;;;;;;4855127;29;20460;-75
2024/02/03 10:48:45;;;;;;;5.67;4.70;;;11.10;99.90;;;;;;4859356;29;20434;-74
2024/02/03 10:51:24;;;;;;;4.70;3.60;;;11.30;99.90;;;;;;4858890;29;20495;-73
2024/02/03 10:53:56;;;;;;;6.17;4.60;;;11.30;99.90;;;;;;4857689;29;20548;-75
2024/02/03 10:56:28;;;;;;;4.80;3.70;;;11.30;99.90;;;;;;4856110;29;20451;-76
2024/02/03 10:58:54;;;;;;;5.00;3.83;;;11.40;99.90;;;;;;4857706;29;20431;-75
2024/02/03 11:01:21;;;;;;;7.10;3.23;;;11.50;99.90;;;;;;4871398;29;20488;-78
2024/02/03 11:03:51;;;;;;;5.03;3.87;;;11.40;99.90;;;;;;4855851;29;20197;-75
2024/02/03 11:06:27;;;;;;;4.50;4.10;;;11.50;99.90;;;;;;4871398;29;20487;-75
2024/02/03 11:09:08;;;;;;;5.43;4.27;;;11.40;99.90;;;;;;4855504;29;20434;-77
2024/02/03 11:11:34;;;;;;;6.93;4.50;;;11.50;99.90;;;;;;4855546;29;20900;-76
2024/02/03 11:14:01;;;;;;;5.10;4.33;;;11.20;99.90;;;;;;4856233;29;20426;-76
2024/02/03 11:16:35;;;;;;;6.23;5.50;;;11.30;99.90;;;;;;4849965;29;20225;-75
2024/02/03 11:19:01;;;;;;;7.57;5.47;;;11.20;99.90;;;;;;4853406;29;20537;-75
2024/02/03 11:21:27;;;;;;;8.00;5.00;;;11.20;99.90;;;;;;4858909;29;20439;-79
2024/02/03 11:23:53;;;;;;;10.33;5.50;;;11.10;99.90;;;;;;4856801;29;20250;-78
2024/02/03 11:26:18;;;;;;;7.20;5.47;;;11.20;99.90;;;;;;4840422;29;20456;-79
2024/02/03 11:28:44;;;;;;;8.10;5.60;;;11.20;99.90;;;;;;4859663;29;20209;-77
2024/02/03 11:31:10;;;;;;;5.77;5.17;;;11.20;99.90;;;;;;4856589;29;20201;-76
2024/02/03 11:33:48;;;;;;;6.67;5.00;;;11.50;99.90;;;;;;4857539;29;20189;-78
2024/02/03 11:36:14;;;;;;;5.37;4.87;;;11.60;99.90;;;;;;4857631;29;20307;-76
2024/02/03 11:38:49;;;;;;;12.50;5.20;;;11.70;99.90;;;;;;4871114;29;20418;-78
2024/02/03 11:41:15;;;;;;;5.60;5.00;;;11.80;99.90;;;;;;4856691;29;20241;-77
2024/02/03 11:43:41;;;;;;;6.10;4.00;;;12.00;99.90;;;;;;4853767;29;20436;-78
2024/02/03 11:46:10;;;;;;;12.17;4.60;;;12.10;99.90;;;;;;4857673;29;20510;-75
2024/02/03 11:48:37;;;;;;;5.77;4.40;;;12.20;99.90;;;;;;4857347;29;20433;-76
2024/02/03 11:51:03;;;;;;;4.80;3.60;;;12.30;99.90;;;;;;4855990;29;20552;-74
2024/02/03 11:53:29;;;;;;;5.10;3.90;;;12.50;99.90;;;;;;4873293;29;20414;-77
2024/02/03 11:55:56;;;;;;;6.50;3.50;;;12.50;99.90;;;;;;4855852;29;20537;-76
2024/02/03 11:58:23;;;;;;;4.70;3.30;;;12.40;99.90;;;;;;4859183;29;20185;-77
2024/02/03 12:01:10;;;;;;;5.23;3.80;;;12.60;99.90;;;;;;4871431;29;20418;-74
2024/02/03 12:03:36;;;;;;;6.27;4.37;;;12.80;99.90;;;;;;4870699;29;20434;-78
2024/02/03 12:06:05;;;;;;;4.83;3.20;;;12.90;99.90;;;;;;4859621;29;20759;-76
2024/02/03 12:08:32;;;;;;;3.57;3.20;;;12.80;99.90;;;;;;4856719;29;20418;-75
2024/02/03 12:10:58;;;;;;;8.10;4.00;;;12.80;99.90;;;;;;4857314;29;20469;-78
2024/02/03 12:13:24;;;;;;;3.63;3.33;;;12.70;99.90;;;;;;4858811;29;20426;-78
2024/02/03 12:15:53;;;;;;;5.37;3.40;;;12.70;99.90;;;;;;4856848;29;20438;-77
2024/02/03 12:18:20;;;;;;;3.83;2.57;;;12.60;99.90;;;;;;4872850;29;20186;-77
2024/02/03 12:20:45;;;;;;;4.00;3.30;;;12.70;99.90;;;;;;4871337;29;20442;-78
2024/02/03 12:23:12;;;;;;;4.07;3.17;;;12.60;99.90;;;;;;4857172;29;20634;-77
2024/02/03 12:25:37;;;;;;;4.27;3.83;;;12.40;99.90;;;;;;4853943;29;20224;-77
2024/02/03 12:28:05;;;;;;;3.70;2.73;;;12.40;99.90;;;;;;4856772;29;20519;-75
2024/02/03 12:30:35;;;;;;;5.90;4.27;;;12.30;99.90;;;;;;4859973;29;20252;-76
2024/02/03 12:33:03;;;;;;;3.40;3.10;;;12.30;99.90;;;;;;4859024;29;20505;-77
2024/02/03 12:35:29;;;;;;;4.13;3.50;;;12.30;99.90;;;;;;4859741;29;20458;-77
2024/02/03 12:37:55;;;;;;;4.13;2.80;;;12.30;99.90;;;;;;4856441;29;20414;-76
2024/02/03 12:40:21;;;;;;;4.60;3.37;;;12.20;99.90;;;;;;4859508;29;20463;-77
2024/02/03 12:42:46;;;;;;;5.37;3.40;;;12.30;99.90;;;;;;4862094;29;20223;-77
2024/02/03 12:45:12;;;;;;;2.57;2.30;;;12.40;99.90;;;;;;4858247;29;20237;-79